Home > Products > Valid Products > TAF

000
FTUS43 KGLD 261125
TAFGLD
TAF
KGLD 261125Z 2612/2712 31015G22KT P6SM BKN045 OVC070
     FM261400 32018KT P6SM OVC070
     FM262100 VRB06KT P6SM BKN050
     FM270200 17007KT P6SM FEW050=



000
FTUS43 KGLD 261125
TAFMCK
TAF
KMCK 261125Z 2612/2712 30012KT P6SM OVC110
     FM261500 33015G25KT P6SM BKN110
     FM262000 33010KT P6SM BKN070
     FM270000 VRB05KT P6SM BKN060
     FM270300 14006KT P6SM BKN045=



000
FTUS43 KGLD 261125
TAFMCK
TAF
KMCK 261125Z 2612/2712 30012KT P6SM OVC110
     FM261500 33015G25KT P6SM BKN110
     FM262000 33010KT P6SM BKN070
     FM270000 VRB05KT P6SM BKN060
     FM270300 14006KT P6SM BKN045=



000
FTUS43 KGLD 261049 AAB
TAFMCK
TAF AMD
KMCK 261049Z 2611/2706 30015KT P6SM FEW040 SCT120
     FM261500 33015G25KT P6SM BKN110
     FM262000 33010KT P6SM BKN070
     FM270000 VRB05KT P6SM BKN050=



000
FTUS43 KGLD 261049 AAB
TAFMCK
TAF AMD
KMCK 261049Z 2611/2706 30015KT P6SM FEW040 SCT120
     FM261500 33015G25KT P6SM BKN110
     FM262000 33010KT P6SM BKN070
     FM270000 VRB05KT P6SM BKN050=



000
FTUS43 KGLD 261043 AAC
TAFGLD
TAF AMD
KGLD 261043Z 2611/2706 32019G25KT 4SM -SN BR FEW008 OVC040
     FM261200 31015G25KT P6SM OVC040
     FM262000 27008KT P6SM SCT050=



000
FTUS43 KGLD 260740 AAB
TAFGLD
TAF AMD
KGLD 260740Z 2608/2706 32016KT P6SM -SN FEW008 SCT015 OVC035
      TEMPO 2608/2609 BKN015
     FM261000 33014KT P6SM SCT025 OVC060
     FM262200 27008KT P6SM SCT050=



000
FTUS43 KGLD 260726 AAA
TAFMCK
TAF AMD
KMCK 260726Z 2607/2706 28015G22KT P6SM BKN070 OVC090
     FM260900 31014G24KT P6SM SCT025 OVC090
     FM262000 33010KT P6SM BKN070
     FM270000 VRB05KT P6SM BKN050=



000
FTUS43 KGLD 260726 AAA
TAFMCK
TAF AMD
KMCK 260726Z 2607/2706 28015G22KT P6SM BKN070 OVC090
     FM260900 31014G24KT P6SM SCT025 OVC090
     FM262000 33010KT P6SM BKN070
     FM270000 VRB05KT P6SM BKN050=



000
FTUS43 KGLD 260552
TAFGLD
TAF
KGLD 260552Z 2606/2706 32012KT P6SM -SN SCT009 BKN025
      TEMPO 2606/2608 BKN009
     FM261000 33014KT P6SM SCT025 OVC060
     FM262200 27008KT P6SM SCT050=



000
FTUS43 KGLD 260552
TAFMCK
TAF
KMCK 260552Z 2606/2706 30010KT P6SM SCT025 OVC100
     FM260900 31014G24KT P6SM SCT025 OVC090
     FM262000 33010KT P6SM BKN070
     FM270000 VRB05KT P6SM BKN050=



000
FTUS43 KGLD 260552
TAFMCK
TAF
KMCK 260552Z 2606/2706 30010KT P6SM SCT025 OVC100
     FM260900 31014G24KT P6SM SCT025 OVC090
     FM262000 33010KT P6SM BKN070
     FM270000 VRB05KT P6SM BKN050=



000
FTUS43 KGLD 252351
TAFMCK
TAF
KMCK 252351Z 2600/2624 VRB05KT P6SM OVC090
     FM260300 29012KT P6SM BKN030
     FM260800 31013G23KT P6SM SCT025 BKN110
     FM262000 33010KT P6SM BKN080=



000
FTUS43 KGLD 252351
TAFGLD
TAF
KGLD 252351Z 2600/2624 28011KT P6SM OVC070
     FM260300 33014KT P6SM BKN030
     FM260900 33012KT P6SM OVC050
     FM261900 33009KT P6SM SCT050=



000
FTUS43 KGLD 252351
TAFMCK
TAF
KMCK 252351Z 2600/2624 VRB05KT P6SM OVC090
     FM260300 29012KT P6SM BKN030
     FM260800 31013G23KT P6SM SCT025 BKN110
     FM262000 33010KT P6SM BKN080=



000
FTUS43 KGLD 251846 RRA
TAFMCK
TAF
KMCK 251846Z 2519/2618 20012G20KT P6SM BKN100
     FM252100 27011KT P6SM BKN100
     FM260200 33012G20KT P6SM BKN100=



000
FTUS43 KGLD 251846 RRA
TAFMCK
TAF
KMCK 251846Z 2519/2618 20012G20KT P6SM BKN100
     FM252100 27011KT P6SM BKN100
     FM260200 33012G20KT P6SM BKN100=



000
FTUS43 KGLD 251846 RRA
TAFGLD
TAF
KGLD 251846Z 2519/2618 22015G25KT P6SM BKN120
     FM252100 33012G20KT P6SM BKN100=



000
FTUS43 KGLD 251132
TAFMCK
TAF
KMCK 251132Z 2512/2612 25009KT P6SM SKC
     FM251800 23015G20KT P6SM OVC090
     FM252200 26015G25KT P6SM OVC060
     FM260200 30012KT P6SM OVC040=



000
FTUS43 KGLD 251132
TAFGLD
TAF
KGLD 251132Z 2512/2612 26009KT P6SM SKC
     FM251400 23013KT P6SM SCT070
     FM251700 23017G25KT P6SM BKN060
     FM252200 26015G25KT P6SM OVC050
     FM260000 28010KT P6SM OVC050
     FM260400 31010KT P6SM OVC040=



000
FTUS43 KGLD 250521
TAFGLD
TAF
KGLD 250521Z 2506/2606 32010KT P6SM SCT200
     FM251200 24012KT P6SM SCT200
     FM252100 29010G20KT P6SM SCT030 BKN050
     FM260100 33010KT P6SM -SHSN BKN050=



000
FTUS43 KGLD 250521
TAFMCK
TAF
KMCK 250521Z 2506/2606 32010KT P6SM SCT200
     FM251100 26008KT P6SM SCT200
     FM252000 26010G20KT P6SM SCT035 BKN060
     FM260000 29010KT P6SM -SHSN BKN050=



000
FTUS43 KGLD 250521
TAFMCK
TAF
KMCK 250521Z 2506/2606 32010KT P6SM SCT200
     FM251100 26008KT P6SM SCT200
     FM252000 26010G20KT P6SM SCT035 BKN060
     FM260000 29010KT P6SM -SHSN BKN050=



000
FTUS43 KGLD 242320
TAFMCK
TAF
KMCK 242320Z 2500/2524 33012KT P6SM VCSH BKN070
     FM250600 30010KT P6SM SCT200
     FM251100 26008KT P6SM SCT200
     FM252000 26010G20KT P6SM SCT035 BKN060=



000
FTUS43 KGLD 242320
TAFMCK
TAF
KMCK 242320Z 2500/2524 33012KT P6SM VCSH BKN070
     FM250600 30010KT P6SM SCT200
     FM251100 26008KT P6SM SCT200
     FM252000 26010G20KT P6SM SCT035 BKN060=



000
FTUS43 KGLD 242320
TAFGLD
TAF
KGLD 242320Z 2500/2524 33010G18KT P6SM -SHRA FEW030 BKN070
     FM250600 32010KT P6SM SCT200
     FM251200 24012KT P6SM SCT200
     FM252100 29010G20KT P6SM SCT030 BKN050=



000
FTUS43 KGLD 241740
TAFMCK
TAF
KMCK 241740Z 2418/2518 33018G28KT P6SM SCT070
     FM250000 33012KT P6SM SCT070
     FM250600 30010KT P6SM SCT200
     FM251200 26008KT P6SM SKC=



000
FTUS43 KGLD 241740
TAFMCK
TAF
KMCK 241740Z 2418/2518 33018G28KT P6SM SCT070
     FM250000 33012KT P6SM SCT070
     FM250600 30010KT P6SM SCT200
     FM251200 26008KT P6SM SKC=



000
FTUS43 KGLD 241740
TAFGLD
TAF
KGLD 241740Z 2418/2518 34020G30KT P6SM BKN070
     FM250000 33010G18KT P6SM FEW030 BKN070
     FM250600 32010KT P6SM SCT200
     FM251200 24012KT P6SM SKC=



000
FTUS43 KGLD 241120
TAFMCK
TAF
KMCK 241120Z 2412/2512 29017G23KT P6SM SKC
     FM241800 33025G30KT P6SM FEW040
     FM250000 33010KT P6SM SCT040
     FM250600 30010KT P6SM SCT025=



000
FTUS43 KGLD 241120
TAFGLD
TAF
KGLD 241120Z 2412/2512 29020KT P6SM SKC
     FM241600 31015G25KT P6SM SCT120
     FM241800 34025G30KT P6SM FEW070 SCT180
     FM250000 33015G20KT P6SM SCT030 BKN060
     FM250600 32010KT P6SM SCT030=



000
FTUS43 KGLD 241120
TAFMCK
TAF
KMCK 241120Z 2412/2512 29017G23KT P6SM SKC
     FM241800 33025G30KT P6SM FEW040
     FM250000 33010KT P6SM SCT040
     FM250600 30010KT P6SM SCT025=



000
FTUS43 KGLD 240721 AAB
TAFGLD
TAF AMD
KGLD 240721Z 2407/2506 27013KT P6SM SKC
     FM240900 30015KT P6SM FEW150
     FM241600 32022G32KT P6SM SCT080 BKN150
     FM250000 32010G16KT P6SM SCT120=



000
FTUS43 KGLD 240635 AAA
TAFMCK
TAF AMD
KMCK 240635Z 2407/2506 26014G22KT P6SM FEW090
     FM240800 30015G22KT P6SM SCT040 BKN100
     FM241600 31020G30KT P6SM FEW150
     FM250000 30010KT P6SM SCT120=



000
FTUS43 KGLD 240520
TAFMCK
TAF
KMCK 240520Z 2406/2506 30010G18KT P6SM SCT100
     FM240900 28010KT P6SM SCT040 BKN100
     FM241600 31020G30KT P6SM FEW150
     FM250000 30010KT P6SM SCT120=



000
FTUS43 KGLD 240520
TAFGLD
TAF
KGLD 240520Z 2406/2506 31010G16KT P6SM SCT100
     FM240900 28010KT P6SM FEW150
     FM241600 32022G32KT P6SM SCT080 BKN150
     FM250000 32010G16KT P6SM SCT120=



000
FTUS43 KGLD 240520
TAFMCK
TAF
KMCK 240520Z 2406/2506 30010G18KT P6SM SCT100
     FM240900 28010KT P6SM SCT040 BKN100
     FM241600 31020G30KT P6SM FEW150
     FM250000 30010KT P6SM SCT120=



000
FTUS43 KGLD 240127 AAA
TAFMCK
TAF AMD
KMCK 240127Z 2401/2424 32010G18KT P6SM SCT100
     FM240700 29010G20KT P6SM SCT040 BKN100
     FM241600 31022G30KT P6SM FEW150=



000
FTUS43 KGLD 240127 AAA
TAFMCK
TAF AMD
KMCK 240127Z 2401/2424 32010G18KT P6SM SCT100
     FM240700 29010G20KT P6SM SCT040 BKN100
     FM241600 31022G30KT P6SM FEW150=



000
FTUS43 KGLD 240126 AAA
TAFGLD
TAF AMD
KGLD 240126Z 2401/2424 33010G16KT P6SM SCT100
     FM240900 29010G20KT P6SM FEW150
     FM241600 32022G32KT P6SM SCT080 BKN150=



000
FTUS43 KGLD 232320
TAFMCK
TAF
KMCK 232320Z 2400/2424 32020G30KT P6SM SCT100
     FM240700 29010G20KT P6SM SCT040 BKN100
     FM241600 31022G30KT P6SM FEW150=



000
FTUS43 KGLD 232320
TAFGLD
TAF
KGLD 232320Z 2400/2424 33016G26KT P6SM SCT100
     FM240900 29010G20KT P6SM FEW150
     FM241600 32022G32KT P6SM SCT080 BKN150=



000
FTUS43 KGLD 232320
TAFMCK
TAF
KMCK 232320Z 2400/2424 32020G30KT P6SM SCT100
     FM240700 29010G20KT P6SM SCT040 BKN100
     FM241600 31022G30KT P6SM FEW150=



000
FTUS43 KGLD 232005 AAB
TAFGLD
TAF AMD
KGLD 232005Z 2320/2418 35029G39KT P6SM SCT150
     FM240000 33016G24KT P6SM SCT100
     FM240900 30018KT P6SM FEW150
     FM241600 32020G28KT P6SM SCT080 BKN150=



000
FTUS43 KGLD 231918 AAA
TAFGLD
TAF AMD
KGLD 231918Z 2319/2418 35029G39KT P6SM BKN100
      TEMPO 2319/2321 2SM BLDU FU
     FM240000 33016G24KT P6SM SCT100
     FM240900 30018KT P6SM FEW150
     FM241600 32020G28KT P6SM SCT080 BKN150=



000
FTUS43 KGLD 231720
TAFMCK
TAF
KMCK 231720Z 2318/2418 33027G36KT P6SM BKN100
     FM240000 31017G25KT P6SM SCT100
     FM240800 29017KT P6SM SCT040 BKN100
     FM241600 31022G30KT P6SM FEW150=



000
FTUS43 KGLD 231720
TAFGLD
TAF
KGLD 231720Z 2318/2418 35029G39KT P6SM BKN100
     FM240000 33016G24KT P6SM SCT100
     FM240900 30018KT P6SM FEW150
     FM241600 32020G28KT P6SM SCT080 BKN150=



000
FTUS43 KGLD 231720
TAFMCK
TAF
KMCK 231720Z 2318/2418 33027G36KT P6SM BKN100
     FM240000 31017G25KT P6SM SCT100
     FM240800 29017KT P6SM SCT040 BKN100
     FM241600 31022G30KT P6SM FEW150=



000
FTUS43 KGLD 231557 AAA
TAFMCK
TAF AMD
KMCK 231557Z 2316/2412 35022G32KT P6SM OVC100
     FM231800 33028G38KT P6SM SCT100
     FM240000 31018G26KT P6SM SCT200
     FM240800 29017KT P6SM SCT040=



000
FTUS43 KGLD 231557 AAA
TAFMCK
TAF AMD
KMCK 231557Z 2316/2412 35022G32KT P6SM OVC100
     FM231800 33028G38KT P6SM SCT100
     FM240000 31018G26KT P6SM SCT200
     FM240800 29017KT P6SM SCT040=



000
FTUS43 KGLD 231552 AAA
TAFGLD
TAF AMD
KGLD 231552Z 2316/2412 35023G33KT P6SM BKN100
     FM231800 35031G41KT P6SM SCT100
     FM240000 31017G25KT P6SM SCT150
     FM240900 30018KT P6SM FEW150=



000
FTUS43 KGLD 231552 AAA
TAFGLD
TAF AMD
KGLD 231552Z 2316/2412 35023G33KT P6SM BKN100
     FM231800 35031G41KT P6SM SCT100
     FM240000 31017G25KT P6SM SCT150
     FM240900 30018KT P6SM FEW150=



    US Dept of Commerce
    National Oceanic and Atmospheric Administration
    National Weather Service
    1325 East West Highway
    Silver Spring, MD 20910
    Page Author: NWS Internet Services Team
Disclaimer
Information Quality
Credits
Glossary
Privacy Policy
Freedom of Information Act (FOIA)
About Us
Career Opportunities